Currituck — AEFR — position and weather

sailwx.info

Track history (hours):
 
Tides and Currents Weather Stations Pressure Air Temp Water Temp Dewpoint Dewpoint Depression Visibility Wind Speed Wind Dir Waves Ship Positions

Currituck

Last reported at 2016-Sep-14 12:33 UTC. Time now 2016-Sep-30 22:00 UTC.
Position N 35°07' W 075°59'.
Warning: this ship's position is 16 days out of date.

Length 45 m; draft 3 m.

Type: Dredging. MMSI: 369970446.

Date/timePositionNaut miles runAvg speedWind from/ knotsBaromVisibWave heightAir tempDewpointWater temp
2016-Sep-14 12:33N 35°07' W 075°59'3 1.1
2016-Sep-14 10:15N 35°09' W 076°01'2 2.1
2016-Sep-14 09:03N 35°07' W 075°59'0 0.0
2016-Sep-14 07:33N 35°07' W 075°59'0 0.0
2016-Sep-14 06:33N 35°07' W 075°59'0 0.0
2016-Sep-14 03:31N 35°07' W 075°59'0 0.0
2016-Sep-11 23:33N 35°07' W 075°59'0 0.0
2016-Sep-11 08:27N 35°07' W 075°59'0 0.0
2016-Sep-11 07:07N 35°07' W 075°59'3 0.1
2016-Sep-09 12:29N 35°05' W 076°01'2 1.7
2016-Sep-09 11:15N 35°04' W 075°59'2 2.9
2016-Sep-09 10:33N 35°05' W 076°01'3 1.2
2016-Sep-09 08:15N 35°07' W 075°59'0 0.0
2016-Sep-09 03:25N 35°07' W 075°59'0 0.0
2016-Sep-09 01:29N 35°07' W 075°59'0 0.0
2016-Sep-09 00:33N 35°07' W 075°59'0 0.0
2016-Sep-08 23:33N 35°07' W 075°59'4 0.3
2016-Sep-08 11:26N 35°03' W 075°59'2 2.3
2016-Sep-08 10:32N 35°05' W 076°01'3 0.5
2016-Sep-08 04:24N 35°07' W 075°59'0 0.0
2016-Sep-08 03:33N 35°07' W 075°59'0 0.0
2016-Sep-07 10:29N 35°07' W 075°59'0 0.0
2016-Sep-07 09:33N 35°07' W 075°59'0 0.0
2016-Sep-07 08:33N 35°07' W 075°59'0 0.0
2016-Sep-07 07:33N 35°07' W 075°59'0 0.0
2016-Sep-07 06:33N 35°07' W 075°59'0 0.0
2016-Sep-07 04:33N 35°07' W 075°59'0 0.0
2016-Sep-07 03:33N 35°07' W 075°59'0 0.0
2016-Sep-07 02:33N 35°07' W 075°59'0 0.0
2016-Sep-07 01:33N 35°07' W 075°59'3 0.2
2016-Sep-06 12:33N 35°05' W 076°01'  
Track history (hours):
 
Tides and Currents Weather Stations Pressure Air Temp Water Temp Dewpoint Dewpoint Depression Visibility Wind Speed Wind Dir Waves Ship Positions

Currituck

Last reported at 2016-Sep-14 12:33 UTC. Time now 2016-Sep-30 22:00 UTC.
Position N 35°07' W 075°59'.
Warning: this ship's position is 16 days out of date.

Length 45 m; draft 3 m.

Type: Dredging. MMSI: 369970446.

Date/timePositionNaut miles runAvg speedWind from/ knotsBaromVisibWave heightAir tempDewpointWater temp
2016-Sep-14 12:33N 35°07' W 075°59'3 1.1
2016-Sep-14 10:15N 35°09' W 076°01'2 2.1
2016-Sep-14 09:03N 35°07' W 075°59'0 0.0
2016-Sep-14 07:33N 35°07' W 075°59'0 0.0
2016-Sep-14 06:33N 35°07' W 075°59'0 0.0
2016-Sep-14 03:31N 35°07' W 075°59'0 0.0
2016-Sep-11 23:33N 35°07' W 075°59'0 0.0
2016-Sep-11 08:27N 35°07' W 075°59'0 0.0
2016-Sep-11 07:07N 35°07' W 075°59'3 0.1
2016-Sep-09 12:29N 35°05' W 076°01'2 1.7
2016-Sep-09 11:15N 35°04' W 075°59'2 2.9
2016-Sep-09 10:33N 35°05' W 076°01'3 1.2
2016-Sep-09 08:15N 35°07' W 075°59'0 0.0
2016-Sep-09 03:25N 35°07' W 075°59'0 0.0
2016-Sep-09 01:29N 35°07' W 075°59'0 0.0
2016-Sep-09 00:33N 35°07' W 075°59'0 0.0
2016-Sep-08 23:33N 35°07' W 075°59'4 0.3
2016-Sep-08 11:26N 35°03' W 075°59'2 2.3
2016-Sep-08 10:32N 35°05' W 076°01'3 0.5
2016-Sep-08 04:24N 35°07' W 075°59'0 0.0
2016-Sep-08 03:33N 35°07' W 075°59'0 0.0
2016-Sep-07 10:29N 35°07' W 075°59'0 0.0
2016-Sep-07 09:33N 35°07' W 075°59'0 0.0
2016-Sep-07 08:33N 35°07' W 075°59'0 0.0
2016-Sep-07 07:33N 35°07' W 075°59'0 0.0
2016-Sep-07 06:33N 35°07' W 075°59'0 0.0
2016-Sep-07 04:33N 35°07' W 075°59'0 0.0
2016-Sep-07 03:33N 35°07' W 075°59'0 0.0
2016-Sep-07 02:33N 35°07' W 075°59'0 0.0
2016-Sep-07 01:33N 35°07' W 075°59'3 0.2
2016-Sep-06 12:33N 35°05' W 076°01'  

Dump ship's entire track history